createdAt,value
2022-08-02T00:04:17.881Z,101528.31
2022-08-02T00:10:22.798Z,101539.03
2022-08-02T00:16:37.618Z,101546.38
2022-08-02T00:22:41.462Z,101539.72
2022-08-02T00:28:46.334Z,101546.53
2022-08-02T00:34:50.153Z,101550.91
2022-08-02T00:40:58.063Z,101552.94
2022-08-02T00:47:03.350Z,101558.59
2022-08-02T00:53:09.217Z,101561.34
2022-08-02T00:59:12.684Z,101556.56
2022-08-02T01:05:20.654Z,101563.09
2022-08-02T01:11:24.189Z,101554.75
2022-08-02T01:17:36.215Z,101561.41
2022-08-02T01:23:58.434Z,101561.66
2022-08-02T01:30:05.237Z,101567.78
2022-08-02T01:36:13.094Z,101567.41
2022-08-02T01:42:19.470Z,101561.88
2022-08-02T01:48:27.754Z,101566.50
2022-08-02T01:54:34.119Z,101565.75
2022-08-02T02:00:41.540Z,101574.28
2022-08-02T02:06:47.779Z,101569.91
2022-08-02T02:12:52.601Z,101565.69
2022-08-02T02:18:56.476Z,101571.75
2022-08-02T02:25:01.575Z,101577.81
2022-08-02T02:31:13.984Z,101581.69
2022-08-02T02:37:22.076Z,101578.19
2022-08-02T02:43:30.174Z,101581.66
2022-08-02T02:49:36.116Z,101593.19
2022-08-02T02:55:40.529Z,101585.22
2022-08-02T03:02:07.320Z,101589.69
2022-08-02T03:08:11.011Z,101593.63
2022-08-02T03:14:15.537Z,101600.34
2022-08-02T03:20:22.829Z,101595.41
2022-08-02T03:26:26.494Z,101602.47
2022-08-02T03:32:30.263Z,101598.88
2022-08-02T03:38:36.944Z,101604.16
2022-08-02T03:44:41.395Z,101610.72
2022-08-02T03:50:48.151Z,101613.47
2022-08-02T03:56:53.780Z,101613.75
2022-08-02T04:02:57.447Z,101609.44
2022-08-02T04:09:01.106Z,101614.09
2022-08-02T04:15:08.281Z,101626.63
2022-08-02T04:21:16.168Z,101627.56
2022-08-02T04:27:50.516Z,101631.69
2022-08-02T04:33:47.849Z,101639.41
2022-08-02T04:39:51.566Z,101641.81
2022-08-02T04:45:56.438Z,101646.31
2022-08-02T04:52:01.698Z,101650.03
2022-08-02T04:58:23.740Z,101646.91
2022-08-02T05:04:28.913Z,101650.00
2022-08-02T05:10:33.822Z,101662.72
2022-08-02T05:16:37.402Z,101658.88
2022-08-02T05:22:41.109Z,101670.94
2022-08-02T05:28:46.064Z,101674.78
2022-08-02T05:34:49.588Z,101678.09
2022-08-02T05:40:54.713Z,101673.34
2022-08-02T05:47:00.142Z,101688.03
2022-08-02T05:53:06.902Z,101682.81
2022-08-02T05:59:19.086Z,101686.25
2022-08-02T06:05:26.938Z,101696.66
2022-08-02T06:11:37.792Z,101707.09
2022-08-02T06:17:45.658Z,101704.53
2022-08-02T06:23:58.576Z,101721.63
2022-08-02T06:30:03.661Z,101715.47
2022-08-02T06:36:11.261Z,101710.44
2022-08-02T06:42:27.160Z,101724.53
2022-08-02T06:48:32.009Z,101726.84
2022-08-02T06:54:36.242Z,101725.78
2022-08-02T07:00:40.914Z,101732.16
2022-08-02T07:06:44.900Z,101738.81
2022-08-02T07:12:48.454Z,101732.56
2022-08-02T07:18:53.371Z,101724.53
2022-08-02T07:24:58.567Z,101728.06
2022-08-02T07:31:02.366Z,101734.00
2022-08-02T07:37:07.328Z,101728.47
2022-08-02T07:43:13.359Z,101722.31
2022-08-02T07:49:18.746Z,101726.06
2022-08-02T07:55:23.821Z,101728.59
2022-08-02T08:01:27.527Z,101733.66
2022-08-02T08:07:31.246Z,101737.06
2022-08-02T08:13:36.297Z,101736.06
2022-08-02T08:19:52.140Z,101742.34
2022-08-02T08:25:56.302Z,101734.03
2022-08-02T08:32:01.638Z,101725.25
2022-08-02T08:38:07.949Z,101728.78
2022-08-02T08:44:11.647Z,101727.50
2022-08-02T08:50:24.957Z,101719.97
2022-08-02T08:56:31.606Z,101724.38
2022-08-02T09:02:36.115Z,101731.13
2022-08-02T09:08:41.113Z,101745.59
2022-08-02T09:14:44.844Z,101737.41
2022-08-02T09:20:57.558Z,101729.72
2022-08-02T09:27:12.636Z,101728.72
2022-08-02T09:33:17.998Z,101725.69
2022-08-02T09:39:22.965Z,101735.75
2022-08-02T09:45:34.630Z,101730.88
2022-08-02T09:51:40.060Z,101732.75
2022-08-02T09:57:44.001Z,101725.81
2022-08-02T10:04:00.842Z,101734.13
2022-08-02T10:10:05.653Z,101727.09
2022-08-02T10:16:10.281Z,101726.22
2022-08-02T10:22:19.888Z,101708.56
2022-08-02T10:28:30.966Z,101696.94
2022-08-02T10:34:37.851Z,101712.47
2022-08-02T10:40:48.323Z,101710.19
2022-08-02T10:46:52.189Z,101712.44
2022-08-02T10:53:21.314Z,101708.69
2022-08-02T10:59:27.990Z,101702.59
2022-08-02T11:05:43.165Z,101694.91
2022-08-02T11:12:02.879Z,101682.56
2022-08-02T11:18:07.891Z,101697.53
2022-08-02T11:24:29.522Z,101694.53
2022-08-02T11:30:33.121Z,101687.56
2022-08-02T11:36:47.305Z,101697.16
2022-08-02T11:42:50.937Z,101692.22
2022-08-02T11:48:54.612Z,101685.66
2022-08-02T11:54:59.590Z,101686.53
2022-08-02T12:01:04.345Z,101691.63
2022-08-02T12:07:08.574Z,101684.38
2022-08-02T12:13:13.633Z,101679.06
2022-08-02T12:19:20.298Z,101681.06
2022-08-02T12:25:34.833Z,101671.16
2022-08-02T12:31:56.743Z,101678.56
2022-08-02T12:38:10.934Z,101676.34
2022-08-02T12:44:19.661Z,101679.31
2022-08-02T12:50:27.495Z,101675.63
2022-08-02T12:56:34.395Z,101670.88
2022-08-02T13:02:37.902Z,101677.25
2022-08-02T13:08:42.965Z,101678.94
2022-08-02T13:14:46.501Z,101682.53
2022-08-02T13:20:50.185Z,101669.53
2022-08-02T13:26:55.103Z,101660.88
2022-08-02T13:33:01.173Z,101657.91
2022-08-02T13:39:06.767Z,101658.56
2022-08-02T13:45:14.113Z,101651.41
2022-08-02T13:51:18.129Z,101651.09
2022-08-02T13:57:21.714Z,101642.16
2022-08-02T14:03:26.725Z,101643.38
2022-08-02T14:09:50.252Z,101639.28
2022-08-02T14:15:53.862Z,101617.47
2022-08-02T14:22:11.275Z,101614.06
2022-08-02T14:28:15.871Z,101608.47
2022-08-02T14:34:19.180Z,101607.84
2022-08-02T14:40:30.803Z,101607.00
2022-08-02T14:46:37.167Z,101589.94
2022-08-02T14:52:40.722Z,101595.91
2022-08-02T14:58:45.687Z,101599.22
2022-08-02T15:04:49.257Z,101590.28
2022-08-02T15:10:52.660Z,101591.19
2022-08-02T15:16:59.002Z,101579.34
2022-08-02T15:23:03.539Z,101578.28
2022-08-02T15:29:07.102Z,101578.28
2022-08-02T15:35:12.015Z,101575.50
2022-08-02T15:41:15.746Z,101579.16
2022-08-02T15:47:19.285Z,101580.03
2022-08-02T15:53:24.211Z,101563.31
2022-08-02T15:59:28.065Z,101554.22
2022-08-02T16:05:31.606Z,101562.59
2022-08-02T16:11:36.729Z,101561.25
2022-08-02T16:17:49.355Z,101566.69
2022-08-02T16:24:01.058Z,101564.19
2022-08-02T16:30:09.666Z,101565.78
2022-08-02T16:36:14.098Z,101567.84
2022-08-02T16:42:25.448Z,101558.41
2022-08-02T16:48:30.932Z,101567.88
2022-08-02T16:54:34.899Z,101563.25
2022-08-02T17:00:46.622Z,101556.94
2022-08-02T17:06:52.884Z,101554.47
2022-08-02T17:12:57.026Z,101544.19
2022-08-02T17:19:01.073Z,101555.59
2022-08-02T17:25:07.051Z,101552.03
2022-08-02T17:31:14.829Z,101550.13
2022-08-02T17:37:18.545Z,101538.53
2022-08-02T17:43:25.936Z,101540.41
2022-08-02T17:49:33.548Z,101548.88
2022-08-02T17:55:42.296Z,101543.84
2022-08-02T18:01:53.269Z,101552.19
2022-08-02T18:08:01.079Z,101561.59
2022-08-02T18:14:04.881Z,101563.31
2022-08-02T18:20:12.556Z,101555.25
2022-08-02T18:26:17.721Z,101557.28
2022-08-02T18:33:55.240Z,101561.38
2022-08-02T18:38:49.956Z,101561.50
2022-08-02T18:44:55.896Z,101565.16
2022-08-02T18:51:00.611Z,101569.34
2022-08-02T18:58:04.373Z,101569.53
2022-08-02T19:03:29.689Z,101574.63
2022-08-02T19:09:40.766Z,101575.22
2022-08-02T19:15:46.233Z,101582.69
2022-08-02T19:22:18.198Z,101587.41
2022-08-02T19:28:15.073Z,101575.28
2022-08-02T19:34:20.067Z,101575.41
2022-08-02T19:40:29.703Z,101579.66
2022-08-02T19:46:35.999Z,101572.84
2022-08-02T19:52:42.180Z,101567.56
2022-08-02T19:58:48.274Z,101569.72
2022-08-02T20:05:00.859Z,101565.22
2022-08-02T20:11:14.951Z,101566.59
2022-08-02T20:17:20.670Z,101575.91
2022-08-02T20:23:34.027Z,101568.53
2022-08-02T20:29:45.128Z,101580.59
2022-08-02T20:35:54.736Z,101579.25
2022-08-02T20:42:02.214Z,101580.38
2022-08-02T20:48:11.157Z,101580.63
2022-08-02T20:54:16.420Z,101573.84
2022-08-02T21:00:25.011Z,101582.41
2022-08-02T21:06:30.999Z,101572.34
2022-08-02T21:12:36.301Z,101578.22
2022-08-02T21:18:45.150Z,101576.25
2022-08-02T21:24:50.160Z,101578.63
2022-08-02T21:30:55.218Z,101570.31
2022-08-02T21:36:58.740Z,59315.84
2022-08-02T21:43:03.786Z,59315.84
2022-08-02T21:49:13.093Z,59315.84
2022-08-02T21:55:16.621Z,59315.84
2022-08-02T22:01:31.629Z,59315.84
2022-08-02T22:07:38.171Z,59315.84
2022-08-02T22:13:47.664Z,101573.47
2022-08-02T22:19:53.994Z,101559.47
2022-08-02T22:25:58.220Z,101569.91
2022-08-02T22:32:02.759Z,101561.63
2022-08-02T22:38:14.756Z,101560.22
2022-08-02T22:44:21.886Z,101567.66
2022-08-02T22:50:27.607Z,101567.16
2022-08-02T22:56:32.586Z,101562.25
2022-08-02T23:02:36.246Z,101563.16
2022-08-02T23:08:41.857Z,101562.00
2022-08-02T23:14:47.255Z,101567.69
2022-08-02T23:20:50.750Z,101574.97
2022-08-02T23:26:54.257Z,101567.28
2022-08-02T23:32:59.181Z,101564.38
2022-08-02T23:39:03.193Z,101563.00
2022-08-02T23:45:07.442Z,101554.69
2022-08-02T23:51:21.990Z,101561.00
2022-08-02T23:57:25.899Z,101556.81
